createdAt,value
2019-01-29T00:02:11.557Z,3.57
2019-01-29T00:04:49.446Z,3.30
2019-01-29T00:07:21.074Z,3.63
2019-01-29T00:09:52.831Z,2.97
2019-01-29T00:12:27.328Z,4.27
2019-01-29T00:14:58.840Z,4.63
2019-01-29T00:17:33.782Z,5.10
2019-01-29T00:20:09.919Z,5.07
2019-01-29T00:22:43.588Z,6.17
2019-01-29T00:25:17.607Z,5.40
2019-01-29T00:27:48.854Z,4.10
2019-01-29T00:30:27.611Z,3.80
2019-01-29T00:32:58.912Z,3.03
2019-01-29T00:35:38.112Z,2.63
2019-01-29T00:38:11.656Z,3.70
2019-01-29T00:40:42.346Z,3.90
2019-01-29T00:43:13.429Z,3.33
2019-01-29T00:45:51.808Z,3.40
2019-01-29T00:48:21.518Z,3.70
2019-01-29T00:50:56.909Z,3.57
2019-01-29T00:53:35.232Z,3.20
2019-01-29T00:56:06.879Z,3.87
2019-01-29T00:58:43.225Z,3.10
2019-01-29T01:01:15.458Z,2.47
2019-01-29T01:03:49.755Z,3.20
2019-01-29T01:06:25.272Z,1.70
2019-01-29T01:08:58.230Z,2.47
2019-01-29T01:11:28.164Z,2.00
2019-01-29T01:13:59.007Z,2.80
2019-01-29T01:16:33.836Z,2.57
2019-01-29T01:19:07.393Z,2.93
2019-01-29T01:21:40.732Z,2.70
2019-01-29T01:24:20.784Z,2.00
2019-01-29T01:26:54.079Z,1.47
2019-01-29T01:29:24.990Z,1.43
2019-01-29T01:32:00.539Z,1.60
2019-01-29T01:34:30.653Z,1.20
2019-01-29T01:37:09.976Z,1.93
2019-01-29T01:39:40.750Z,1.57
2019-01-29T01:42:13.983Z,1.80
2019-01-29T01:44:44.946Z,1.13
2019-01-29T01:47:19.069Z,1.27
2019-01-29T01:49:52.235Z,1.10
2019-01-29T01:52:25.207Z,1.17
2019-01-29T01:55:06.336Z,1.67
2019-01-29T01:57:40.820Z,1.20
2019-01-29T02:00:23.196Z,1.70
2019-01-29T02:02:53.218Z,0.90
2019-01-29T02:05:33.442Z,1.20
2019-01-29T02:08:04.599Z,2.30
2019-01-29T02:10:37.395Z,1.00
2019-01-29T02:13:09.207Z,1.40
2019-01-29T02:15:40.679Z,1.10
2019-01-29T02:18:18.238Z,1.30
2019-01-29T02:20:52.608Z,1.33
2019-01-29T02:23:31.205Z,1.27
2019-01-29T02:26:10.295Z,0.93
2019-01-29T02:28:41.884Z,1.30
2019-01-29T02:31:12.935Z,1.23
2019-01-29T02:33:50.922Z,1.30
2019-01-29T02:36:23.385Z,1.67
2019-01-29T02:39:03.448Z,1.40
2019-01-29T02:41:39.599Z,1.20
2019-01-29T02:44:10.121Z,1.77
2019-01-29T02:46:42.492Z,1.40
2019-01-29T02:49:18.372Z,1.30
2019-01-29T02:51:55.799Z,1.37
2019-01-29T02:54:32.403Z,2.03
2019-01-29T02:57:03.816Z,1.03
2019-01-29T02:59:36.237Z,1.60
2019-01-29T03:02:11.682Z,1.50
2019-01-29T03:04:45.137Z,2.13
2019-01-29T03:07:25.383Z,1.53
2019-01-29T03:10:00.432Z,1.57
2019-01-29T03:12:31.167Z,1.87
2019-01-29T03:15:18.924Z,1.57
2019-01-29T03:17:51.419Z,1.30
2019-01-29T03:20:25.129Z,1.50
2019-01-29T03:22:56.922Z,1.43
2019-01-29T03:25:31.339Z,1.30
2019-01-29T03:28:05.134Z,1.80
2019-01-29T03:30:44.846Z,1.00
2019-01-29T03:33:19.645Z,1.20
2019-01-29T03:35:55.271Z,1.27
2019-01-29T03:38:29.528Z,1.63
2019-01-29T03:41:06.270Z,1.20
2019-01-29T03:43:46.162Z,1.43
2019-01-29T03:46:20.042Z,1.70
2019-01-29T03:51:29.435Z,1.33
2019-01-29T03:54:06.308Z,1.40
2019-01-29T03:56:40.467Z,1.27
2019-01-29T03:59:11.049Z,0.90
2019-01-29T04:01:41.666Z,0.97
2019-01-29T04:04:14.124Z,0.90
2019-01-29T04:06:44.511Z,1.27
2019-01-29T04:09:16.607Z,0.90
2019-01-29T04:11:58.309Z,1.10
2019-01-29T04:14:31.092Z,1.17
2019-01-29T04:17:17.025Z,0.77
2019-01-29T04:19:48.347Z,1.10
2019-01-29T04:22:26.634Z,0.80
2019-01-29T04:24:57.432Z,1.00
2019-01-29T04:27:34.149Z,1.10
2019-01-29T04:30:07.116Z,1.10
2019-01-29T04:32:39.934Z,0.87
2019-01-29T04:35:12.699Z,1.00
2019-01-29T04:37:47.663Z,1.40
2019-01-29T04:40:24.812Z,0.87
2019-01-29T04:43:02.114Z,0.60
2019-01-29T04:45:39.447Z,0.93
2019-01-29T04:50:51.144Z,1.20
2019-01-29T04:53:26.298Z,0.53
2019-01-29T04:55:57.581Z,0.43
2019-01-29T04:58:33.546Z,0.60
2019-01-29T05:01:04.469Z,0.60
2019-01-29T05:03:41.956Z,0.70
2019-01-29T05:06:15.995Z,1.10
2019-01-29T05:09:01.265Z,0.60
2019-01-29T05:11:32.774Z,1.03
2019-01-29T05:14:05.447Z,0.73
2019-01-29T05:19:17.593Z,0.80
2019-01-29T05:21:57.053Z,0.83
2019-01-29T05:24:33.297Z,0.87
2019-01-29T05:27:03.621Z,0.80
2019-01-29T05:29:40.705Z,0.80
2019-01-29T05:32:12.938Z,0.83
2019-01-29T05:34:50.696Z,0.80
2019-01-29T05:37:23.848Z,0.73
2019-01-29T05:39:54.728Z,0.70
2019-01-29T05:42:26.810Z,0.87
2019-01-29T05:44:57.911Z,0.50
2019-01-29T05:47:28.951Z,0.67
2019-01-29T05:50:09.146Z,0.50
2019-01-29T05:52:40.020Z,0.50
2019-01-29T05:55:11.485Z,0.47
2019-01-29T05:57:42.667Z,0.70
2019-01-29T06:00:22.453Z,0.77
2019-01-29T06:05:33.659Z,0.60
2019-01-29T06:08:07.276Z,0.90
2019-01-29T06:10:40.958Z,0.80
2019-01-29T06:13:15.299Z,0.57
2019-01-29T06:15:46.115Z,0.50
2019-01-29T06:18:24.899Z,1.07
2019-01-29T06:21:04.049Z,0.43
2019-01-29T06:23:34.177Z,0.50
2019-01-29T06:26:11.284Z,0.77
2019-01-29T06:28:42.639Z,0.90
2019-01-29T06:31:17.363Z,1.00
2019-01-29T06:33:49.786Z,0.73
2019-01-29T06:36:27.442Z,1.00
2019-01-29T06:38:58.762Z,0.97
2019-01-29T06:41:33.924Z,1.07
2019-01-29T06:44:14.968Z,0.77
2019-01-29T06:46:45.909Z,0.90
2019-01-29T06:49:19.680Z,1.17
2019-01-29T06:51:59.371Z,0.90
2019-01-29T06:54:34.057Z,0.73
2019-01-29T06:57:02.461Z,0.77
2019-01-29T06:59:32.383Z,0.60
2019-01-29T07:02:04.489Z,0.50
2019-01-29T07:04:41.860Z,0.70
2019-01-29T07:07:12.473Z,0.83
2019-01-29T07:09:52.210Z,0.50
2019-01-29T07:12:25.082Z,0.93
2019-01-29T07:14:54.807Z,0.97
2019-01-29T07:17:33.291Z,1.00
2019-01-29T07:20:07.027Z,0.73
2019-01-29T07:22:39.371Z,1.07
2019-01-29T07:25:17.819Z,1.57
2019-01-29T07:27:51.513Z,0.77
2019-01-29T07:30:25.076Z,1.40
2019-01-29T07:33:05.888Z,2.10
2019-01-29T07:35:37.136Z,2.87
2019-01-29T07:38:09.528Z,0.90
2019-01-29T07:40:51.411Z,1.10
2019-01-29T07:43:25.066Z,1.30
2019-01-29T07:45:57.633Z,1.43
2019-01-29T07:48:27.891Z,1.50
2019-01-29T07:50:58.491Z,0.87
2019-01-29T07:56:11.489Z,1.10
2019-01-29T07:58:49.231Z,1.40
2019-01-29T08:01:26.195Z,1.20
2019-01-29T08:03:57.928Z,1.63
2019-01-29T08:06:29.970Z,0.97
2019-01-29T08:09:00.816Z,1.30
2019-01-29T08:11:40.841Z,2.70
2019-01-29T08:14:12.131Z,1.20
2019-01-29T08:16:42.086Z,1.03
2019-01-29T08:19:14.595Z,1.00
2019-01-29T08:21:43.638Z,1.13
2019-01-29T08:24:18.814Z,1.00
2019-01-29T08:26:49.034Z,0.90
2019-01-29T08:29:25.950Z,1.77
2019-01-29T08:31:56.973Z,2.30
2019-01-29T08:34:33.940Z,3.07
2019-01-29T08:37:06.957Z,1.50
2019-01-29T08:39:42.063Z,2.00
2019-01-29T08:42:17.724Z,1.40
2019-01-29T08:44:54.966Z,1.70
2019-01-29T08:47:49.332Z,1.50
2019-01-29T08:50:45.840Z,1.63
2019-01-29T08:53:37.805Z,1.13
2019-01-29T09:14:11.755Z,1.50
2019-01-29T09:30:04.151Z,0.80
2019-01-29T09:53:23.986Z,1.20
2019-01-29T09:56:09.829Z,1.40
2019-01-29T10:13:12.507Z,2.13
2019-01-29T10:16:02.302Z,2.40
2019-01-29T13:43:13.849Z,0.10
